createdAt,value
2017-05-23T00:00:37.185Z,6.75
2017-05-23T00:03:05.510Z,7.22
2017-05-23T00:05:33.798Z,6.02
2017-05-23T00:08:02.116Z,5.85
2017-05-23T00:10:30.412Z,6.22
2017-05-23T00:12:58.707Z,6.15
2017-05-23T00:15:27.030Z,6.43
2017-05-23T00:17:55.327Z,6.37
2017-05-23T00:20:23.638Z,7.38
2017-05-23T00:22:51.925Z,6.80
2017-05-23T00:25:20.218Z,6.83
2017-05-23T00:27:48.530Z,7.32
2017-05-23T00:30:16.834Z,6.87
2017-05-23T00:32:45.150Z,6.10
2017-05-23T00:35:13.437Z,8.55
2017-05-23T00:37:41.739Z,8.13
2017-05-23T00:40:10.062Z,7.60
2017-05-23T00:42:38.353Z,7.95
2017-05-23T00:45:06.670Z,7.32
2017-05-23T00:47:34.964Z,7.28
2017-05-23T00:50:03.262Z,7.08
2017-05-23T00:52:31.577Z,7.37
2017-05-23T00:54:59.874Z,7.17
2017-05-23T00:57:28.203Z,7.93
2017-05-23T00:59:56.495Z,6.67
2017-05-23T01:02:24.794Z,7.65
2017-05-23T01:04:53.113Z,7.53
2017-05-23T01:07:21.403Z,7.42
2017-05-23T01:09:49.714Z,7.53
2017-05-23T01:12:18.016Z,7.18
2017-05-23T01:14:46.315Z,7.62
2017-05-23T01:17:14.623Z,7.57
2017-05-23T01:19:42.920Z,7.03
2017-05-23T01:22:11.233Z,7.63
2017-05-23T01:24:39.527Z,7.42
2017-05-23T01:27:07.820Z,8.07
2017-05-23T01:29:36.134Z,7.27
2017-05-23T01:32:04.432Z,8.53
2017-05-23T01:34:32.749Z,7.60
2017-05-23T01:37:01.047Z,7.68
2017-05-23T01:39:29.395Z,6.80
2017-05-23T01:41:57.687Z,7.38
2017-05-23T01:44:25.982Z,7.47
2017-05-23T01:46:54.299Z,7.22
2017-05-23T01:49:22.594Z,7.42
2017-05-23T01:51:50.905Z,7.37
2017-05-23T01:54:19.206Z,7.73
2017-05-23T01:56:47.513Z,7.60
2017-05-23T01:59:15.059Z,7.88
2017-05-23T02:01:43.352Z,8.07
2017-05-23T02:04:11.670Z,6.92
2017-05-23T02:06:39.966Z,7.75
2017-05-23T02:09:08.271Z,8.13
2017-05-23T02:11:36.586Z,8.28
2017-05-23T02:14:04.882Z,8.28
2017-05-23T02:16:33.211Z,7.52
2017-05-23T02:19:01.509Z,8.60
2017-05-23T02:21:29.804Z,7.47
2017-05-23T02:23:58.122Z,8.47
2017-05-23T02:26:26.421Z,8.72
2017-05-23T02:28:54.737Z,8.33
2017-05-23T02:31:23.028Z,8.28
2017-05-23T02:33:50.550Z,8.70
2017-05-23T02:36:18.863Z,9.78
2017-05-23T02:38:47.168Z,8.42
2017-05-23T02:41:15.488Z,8.67
2017-05-23T02:43:43.783Z,8.62
2017-05-23T02:46:12.065Z,8.33
2017-05-23T02:48:40.382Z,7.97
2017-05-23T02:51:08.670Z,8.13
2017-05-23T02:53:36.991Z,7.60
2017-05-23T02:56:05.287Z,8.55
2017-05-23T02:58:33.578Z,8.17
2017-05-23T03:01:01.894Z,8.62
2017-05-23T03:03:30.183Z,8.52
2017-05-23T03:05:58.503Z,8.48
2017-05-23T03:08:26.791Z,8.30
2017-05-23T03:10:55.098Z,8.52
2017-05-23T03:13:23.419Z,9.43
2017-05-23T03:15:51.710Z,8.12
2017-05-23T03:18:20.001Z,9.17
2017-05-23T03:20:48.306Z,8.38
2017-05-23T03:23:16.594Z,9.17
2017-05-23T03:25:44.882Z,9.03
2017-05-23T03:28:13.190Z,8.90
2017-05-23T03:30:41.474Z,9.25
2017-05-23T03:33:09.782Z,9.12
2017-05-23T03:35:38.094Z,8.28
2017-05-23T03:38:06.391Z,8.80
2017-05-23T03:40:34.714Z,9.43
2017-05-23T03:43:03.017Z,9.10
2017-05-23T03:45:31.315Z,8.95
2017-05-23T03:47:59.625Z,8.55
2017-05-23T03:50:27.934Z,8.38
2017-05-23T03:52:56.255Z,8.63
2017-05-23T03:55:24.550Z,8.92
2017-05-23T03:57:52.846Z,8.78
2017-05-23T04:00:21.155Z,8.07
2017-05-23T04:02:49.451Z,8.75
2017-05-23T04:05:17.774Z,7.38
2017-05-23T04:07:46.080Z,7.48
2017-05-23T04:10:14.378Z,8.48
2017-05-23T04:12:42.694Z,7.72
2017-05-23T04:15:10.991Z,8.48
2017-05-23T04:17:39.310Z,8.05
2017-05-23T04:20:07.611Z,7.77
2017-05-23T04:22:35.916Z,8.17
2017-05-23T04:25:04.248Z,8.43
2017-05-23T04:27:32.534Z,8.42
2017-05-23T04:30:00.864Z,8.08
2017-05-23T04:32:29.162Z,9.07
2017-05-23T04:34:57.458Z,8.13
2017-05-23T04:37:25.766Z,7.53
2017-05-23T04:39:54.066Z,8.27
2017-05-23T04:42:22.382Z,7.02
2017-05-23T04:44:50.682Z,8.23
2017-05-23T04:47:18.974Z,8.02
2017-05-23T04:49:47.295Z,7.18
2017-05-23T04:52:15.590Z,8.00
2017-05-23T04:54:43.922Z,7.88
2017-05-23T04:57:12.221Z,7.55
2017-05-23T04:59:40.519Z,8.37
2017-05-23T05:02:08.832Z,7.62
2017-05-23T05:04:37.127Z,7.82
2017-05-23T05:07:05.459Z,7.28
2017-05-23T05:09:33.757Z,7.88
2017-05-23T05:12:02.058Z,6.98
2017-05-23T05:14:30.378Z,7.45
2017-05-23T05:16:58.679Z,7.12
2017-05-23T05:19:27.019Z,7.28
2017-05-23T05:21:55.374Z,6.82
2017-05-23T05:24:23.683Z,7.76
2017-05-23T05:26:51.997Z,7.20
2017-05-23T05:29:20.290Z,7.82
2017-05-23T05:31:48.617Z,7.60
2017-05-23T05:34:16.917Z,6.56
2017-05-23T05:36:45.214Z,7.52
2017-05-23T05:39:13.543Z,7.64
2017-05-23T05:41:41.837Z,7.74
2017-05-23T05:44:10.374Z,7.96
2017-05-23T05:46:38.665Z,7.94
2017-05-23T05:49:06.969Z,8.16
2017-05-23T05:51:35.282Z,7.56
2017-05-23T05:54:03.570Z,7.72
2017-05-23T05:56:31.887Z,7.30
2017-05-23T05:59:00.182Z,7.70
2017-05-23T06:01:28.490Z,7.54
2017-05-23T06:03:57.760Z,7.70
2017-05-23T06:06:26.058Z,7.62
2017-05-23T06:08:54.371Z,7.14
2017-05-23T06:11:22.661Z,7.16
2017-05-23T06:13:56.581Z,7.30
2017-05-23T06:16:24.882Z,7.02
2017-05-23T06:18:53.199Z,7.62
2017-05-23T06:21:21.499Z,7.36
2017-05-23T06:23:49.813Z,6.58
2017-05-23T06:26:18.132Z,7.38
2017-05-23T06:28:46.434Z,7.48
2017-05-23T06:31:14.763Z,7.64
2017-05-23T06:33:43.058Z,7.58
2017-05-23T06:36:11.363Z,6.54
2017-05-23T06:38:39.670Z,7.08
2017-05-23T06:41:08.907Z,6.94
2017-05-23T06:43:37.222Z,7.56
2017-05-23T06:46:05.531Z,6.82
2017-05-23T06:48:33.867Z,5.64
2017-05-23T06:51:02.153Z,6.88
2017-05-23T06:53:30.475Z,6.60
2017-05-23T06:55:58.766Z,5.80
2017-05-23T06:58:27.058Z,5.32
2017-05-23T07:00:55.387Z,5.30
2017-05-23T07:03:23.690Z,6.18
2017-05-23T07:05:52.028Z,5.66
2017-05-23T07:08:23.482Z,5.02
2017-05-23T07:10:51.804Z,6.24
2017-05-23T07:13:20.122Z,6.10
2017-05-23T07:15:48.425Z,6.42
2017-05-23T07:18:16.757Z,6.96
2017-05-23T07:20:45.059Z,6.36
2017-05-23T07:23:13.360Z,6.00
2017-05-23T07:25:41.669Z,6.60
2017-05-23T07:28:10.029Z,6.36
2017-05-23T07:30:38.402Z,5.70
2017-05-23T07:33:06.699Z,5.68
2017-05-23T07:35:35.021Z,5.66
2017-05-23T07:38:03.348Z,5.46
2017-05-23T07:40:31.671Z,5.54
2017-05-23T07:43:00.001Z,5.68
2017-05-23T07:45:28.302Z,5.72
2017-05-23T07:47:56.611Z,5.80
2017-05-23T07:50:24.945Z,4.90
2017-05-23T07:52:53.254Z,5.72
2017-05-23T07:55:21.773Z,5.78
2017-05-23T07:57:50.072Z,5.80
2017-05-23T08:00:18.374Z,6.06
2017-05-23T08:02:46.691Z,5.60
2017-05-23T08:05:14.989Z,5.98
2017-05-23T08:07:43.322Z,5.50
2017-05-23T08:10:11.638Z,5.30
2017-05-23T08:12:39.929Z,5.76
2017-05-23T08:15:08.287Z,5.00
2017-05-23T08:17:36.585Z,5.64
2017-05-23T08:20:04.918Z,5.38
2017-05-23T08:22:33.203Z,4.82
2017-05-23T08:25:01.503Z,3.62
2017-05-23T08:27:29.826Z,3.54
2017-05-23T08:29:58.116Z,4.42
2017-05-23T08:32:26.445Z,3.82
2017-05-23T08:34:54.742Z,4.26
2017-05-23T08:37:23.042Z,4.38
2017-05-23T08:39:51.365Z,4.58
2017-05-23T08:42:19.650Z,3.40
2017-05-23T08:44:47.982Z,3.92
2017-05-23T08:47:16.266Z,3.96
2017-05-23T08:49:44.575Z,4.32
2017-05-23T08:52:12.880Z,3.70
2017-05-23T08:54:41.174Z,3.88
2017-05-23T08:57:09.543Z,3.42
2017-05-23T08:59:37.835Z,3.90
2017-05-23T09:02:06.152Z,3.28
2017-05-23T09:04:35.355Z,4.06
2017-05-23T09:07:03.656Z,3.72
2017-05-23T09:09:31.991Z,4.18
2017-05-23T09:12:00.291Z,4.50
2017-05-23T09:14:28.582Z,4.52
2017-05-23T09:16:56.904Z,3.88
2017-05-23T09:19:25.201Z,3.84
2017-05-23T09:21:53.521Z,3.80
2017-05-23T09:24:21.843Z,4.22
2017-05-23T09:27:07.997Z,4.22
2017-05-23T09:29:36.296Z,4.60
2017-05-23T09:32:04.597Z,4.26
2017-05-23T09:34:32.911Z,4.76
2017-05-23T09:37:01.210Z,4.68
2017-05-23T09:39:30.195Z,4.50
2017-05-23T09:41:58.494Z,4.70
2017-05-23T09:44:26.830Z,4.02
2017-05-23T09:46:55.148Z,3.98
2017-05-23T09:49:23.450Z,3.94
2017-05-23T09:51:51.913Z,3.34
2017-05-23T09:54:20.214Z,3.28
2017-05-23T09:56:48.559Z,2.72
2017-05-23T09:59:16.862Z,2.86
2017-05-23T10:01:45.159Z,3.02
2017-05-23T10:04:13.475Z,3.04
2017-05-23T10:06:41.776Z,3.58
2017-05-23T10:09:10.094Z,2.98
2017-05-23T10:11:38.390Z,3.36
2017-05-23T10:14:06.703Z,3.14
2017-05-23T10:16:35.027Z,2.90
2017-05-23T10:19:03.341Z,2.86
2017-05-23T10:21:31.661Z,2.98
2017-05-23T10:23:59.945Z,2.90
2017-05-23T10:26:28.246Z,3.16
2017-05-23T10:28:56.560Z,3.18
2017-05-23T10:31:24.855Z,3.42
2017-05-23T10:33:53.149Z,3.14
2017-05-23T10:36:21.474Z,3.26
2017-05-23T10:38:49.783Z,3.24
2017-05-23T10:41:18.079Z,3.06
2017-05-23T10:43:46.398Z,3.40
2017-05-23T10:46:14.703Z,3.28
2017-05-23T10:48:43.023Z,3.26
2017-05-23T10:51:11.310Z,2.92
2017-05-23T10:53:39.610Z,3.22
2017-05-23T10:56:07.918Z,3.38
2017-05-23T10:58:36.210Z,3.16
2017-05-23T11:01:04.568Z,3.30
2017-05-23T11:03:32.914Z,3.64
2017-05-23T11:06:01.244Z,3.44
2017-05-23T11:08:29.567Z,3.14
2017-05-23T11:10:57.874Z,3.06
2017-05-23T11:13:26.211Z,3.06
2017-05-23T11:15:54.542Z,3.30
2017-05-23T11:18:22.861Z,3.60
2017-05-23T11:20:51.177Z,3.56
2017-05-23T11:23:19.470Z,3.14
2017-05-23T11:25:47.822Z,3.78
2017-05-23T11:28:16.126Z,3.64
2017-05-23T11:30:44.447Z,3.28
2017-05-23T11:33:12.766Z,2.96
2017-05-23T11:35:41.058Z,2.98
2017-05-23T11:38:09.380Z,3.36
2017-05-23T11:40:37.669Z,3.08
2017-05-23T11:43:06.049Z,3.04
2017-05-23T11:45:34.361Z,3.20
2017-05-23T11:48:02.668Z,3.08
2017-05-23T11:50:30.997Z,3.22
2017-05-23T11:52:59.301Z,3.38
2017-05-23T11:55:27.592Z,3.08
2017-05-23T11:57:55.898Z,3.02
2017-05-23T12:00:24.213Z,3.54
2017-05-23T12:02:52.537Z,3.50
2017-05-23T12:05:20.838Z,3.08
2017-05-23T12:07:49.127Z,3.04
2017-05-23T12:10:17.443Z,3.40
2017-05-23T12:12:45.729Z,3.10
2017-05-23T12:15:14.050Z,3.24
2017-05-23T12:17:42.356Z,2.72
2017-05-23T12:20:10.653Z,3.40
2017-05-23T12:22:38.970Z,2.76
2017-05-23T12:25:07.275Z,2.98
2017-05-23T12:27:35.601Z,3.00
2017-05-23T12:30:03.888Z,3.44
2017-05-23T12:32:32.191Z,3.14
2017-05-23T12:35:00.503Z,3.20
2017-05-23T12:37:28.794Z,2.90
2017-05-23T12:39:57.124Z,3.78
2017-05-23T12:42:25.434Z,3.98
2017-05-23T12:44:53.738Z,3.84
2017-05-23T12:47:22.063Z,3.82
2017-05-23T12:49:50.376Z,4.06
2017-05-23T12:52:18.695Z,3.82
2017-05-23T12:54:47.025Z,3.58
2017-05-23T12:57:15.326Z,3.42
2017-05-23T12:59:43.724Z,3.60
2017-05-23T13:02:12.003Z,3.02
2017-05-23T13:04:40.334Z,3.60
2017-05-23T13:07:08.642Z,3.08
2017-05-23T13:09:36.931Z,3.48
2017-05-23T13:12:05.242Z,3.30
2017-05-23T13:14:33.545Z,3.42
2017-05-23T13:17:01.878Z,3.76
2017-05-23T13:19:30.192Z,3.40
2017-05-23T13:21:58.486Z,3.44
2017-05-23T13:24:26.791Z,3.34
2017-05-23T13:26:55.094Z,3.62
2017-05-23T13:29:23.420Z,3.86
2017-05-23T13:31:51.883Z,3.66
2017-05-23T13:34:20.183Z,3.48
2017-05-23T13:36:48.512Z,3.38
2017-05-23T13:39:16.806Z,3.28
2017-05-23T13:41:45.128Z,3.64
2017-05-23T13:44:16.973Z,3.24
2017-05-23T13:46:45.314Z,3.30
2017-05-23T13:49:13.597Z,3.52
2017-05-23T13:51:41.894Z,3.92
2017-05-23T13:54:10.519Z,3.14
2017-05-23T13:56:38.815Z,3.42
2017-05-23T13:59:07.127Z,2.90
2017-05-23T14:01:35.429Z,3.40
2017-05-23T14:04:03.733Z,3.76
2017-05-23T14:06:32.049Z,3.12
2017-05-23T14:09:00.429Z,3.52
2017-05-23T14:11:28.746Z,3.10
2017-05-23T14:13:57.059Z,3.40
2017-05-23T14:16:25.357Z,4.02
2017-05-23T14:18:53.668Z,3.38
2017-05-23T14:21:21.967Z,4.06
2017-05-23T14:23:50.291Z,3.78
2017-05-23T14:26:18.596Z,3.32
2017-05-23T14:28:46.911Z,3.68
2017-05-23T14:31:15.254Z,3.88
2017-05-23T14:33:43.552Z,3.40
2017-05-23T14:36:11.846Z,3.72
2017-05-23T14:38:40.158Z,3.74
2017-05-23T14:41:08.460Z,3.80
2017-05-23T14:43:36.780Z,3.66
2017-05-23T14:46:05.074Z,3.70
2017-05-23T14:48:33.378Z,3.80
2017-05-23T14:51:01.698Z,3.40
2017-05-23T14:53:29.992Z,3.76
2017-05-23T14:55:58.324Z,3.52
2017-05-23T14:58:26.626Z,4.32
2017-05-23T15:00:54.922Z,3.76
2017-05-23T15:03:23.249Z,3.98
2017-05-23T15:05:51.550Z,3.58
2017-05-23T15:08:19.875Z,3.78
2017-05-23T15:10:48.190Z,3.78
2017-05-23T15:13:16.506Z,3.54
2017-05-23T15:15:44.831Z,3.62
2017-05-23T15:18:13.130Z,3.82
2017-05-23T15:20:41.424Z,3.72
2017-05-23T15:23:09.742Z,3.66
2017-05-23T15:25:38.038Z,4.12
2017-05-23T15:28:06.332Z,3.98
2017-05-23T15:30:34.676Z,4.04
2017-05-23T15:33:02.962Z,3.24
2017-05-23T15:35:31.285Z,3.70
2017-05-23T15:37:59.591Z,3.62
2017-05-23T15:40:27.882Z,3.80
2017-05-23T15:42:56.191Z,4.46
2017-05-23T15:45:24.497Z,3.90
2017-05-23T15:47:52.820Z,4.12
2017-05-23T15:50:21.109Z,4.12
2017-05-23T15:52:49.404Z,4.12
2017-05-23T15:55:17.740Z,3.82
2017-05-23T15:57:46.037Z,4.18
2017-05-23T16:00:14.417Z,3.64
2017-05-23T16:02:42.797Z,4.54
2017-05-23T16:05:11.094Z,3.90
2017-05-23T16:07:39.407Z,4.06
2017-05-23T16:10:07.719Z,4.48
2017-05-23T16:12:36.030Z,3.90
2017-05-23T16:15:04.342Z,3.72
2017-05-23T16:17:32.640Z,3.56
2017-05-23T16:20:00.971Z,3.62
2017-05-23T16:22:29.263Z,3.94
2017-05-23T16:24:57.579Z,3.40
2017-05-23T16:27:25.882Z,4.22
2017-05-23T16:29:54.228Z,3.68
2017-05-23T16:32:22.536Z,3.94
2017-05-23T16:34:50.840Z,3.56
2017-05-23T16:37:19.167Z,3.90
2017-05-23T16:39:47.359Z,4.10
2017-05-23T16:42:15.654Z,3.90
2017-05-23T16:44:44.444Z,3.58
2017-05-23T16:47:12.733Z,4.20
2017-05-23T16:49:41.055Z,4.32
2017-05-23T16:52:09.351Z,4.02
2017-05-23T16:54:37.647Z,4.52
2017-05-23T16:57:05.966Z,3.94
2017-05-23T16:59:34.270Z,4.26
2017-05-23T17:02:02.598Z,4.02
2017-05-23T17:04:30.893Z,4.72
2017-05-23T17:06:59.219Z,4.20
2017-05-23T17:09:27.538Z,4.36
2017-05-23T17:11:55.854Z,4.98
2017-05-23T17:14:24.191Z,4.18
2017-05-23T17:16:52.496Z,3.92
2017-05-23T17:19:20.799Z,4.48
2017-05-23T17:21:49.125Z,4.38
2017-05-23T17:24:17.418Z,5.00
2017-05-23T17:26:45.740Z,4.12
2017-05-23T17:29:14.044Z,4.32
2017-05-23T17:31:42.363Z,4.34
2017-05-23T17:34:10.691Z,5.68
2017-05-23T17:36:38.996Z,4.08
2017-05-23T17:39:07.306Z,4.36
2017-05-23T17:41:35.613Z,4.58
2017-05-23T17:44:03.935Z,4.76
2017-05-23T17:46:32.234Z,4.08
2017-05-23T17:49:00.538Z,4.56
2017-05-23T17:51:28.859Z,4.12
2017-05-23T17:53:57.171Z,4.22
2017-05-23T17:56:25.471Z,4.36
2017-05-23T17:58:53.787Z,3.98
2017-05-23T18:01:22.093Z,3.60
2017-05-23T18:03:50.386Z,3.86
2017-05-23T18:06:18.697Z,3.22
2017-05-23T18:08:46.993Z,3.42
2017-05-23T18:11:15.322Z,3.18
2017-05-23T18:13:43.624Z,3.08
2017-05-23T18:16:11.930Z,3.48
2017-05-23T18:18:40.251Z,2.94
2017-05-23T18:21:08.542Z,3.10
2017-05-23T18:23:36.872Z,3.20
2017-05-23T18:26:05.178Z,3.40
2017-05-23T18:28:33.483Z,3.60
2017-05-23T18:31:01.803Z,3.38
2017-05-23T18:33:30.129Z,3.48
2017-05-23T18:35:58.455Z,3.38
2017-05-23T18:38:26.758Z,3.52
2017-05-23T18:40:55.054Z,3.26
2017-05-23T18:43:23.375Z,3.22
2017-05-23T18:45:51.677Z,3.78
2017-05-23T18:48:20.074Z,3.58
2017-05-23T18:50:48.392Z,3.38
2017-05-23T18:53:16.687Z,3.60
2017-05-23T18:55:45.006Z,3.62
2017-05-23T18:58:14.211Z,3.56
2017-05-23T19:00:42.540Z,3.12
2017-05-23T19:03:10.830Z,3.26
2017-05-23T19:05:39.223Z,3.58
2017-05-23T19:08:07.600Z,3.14
2017-05-23T19:10:35.894Z,3.28
2017-05-23T19:13:04.235Z,3.50
2017-05-23T19:15:32.541Z,3.30
2017-05-23T19:18:00.855Z,3.74
2017-05-23T19:20:29.176Z,3.50
2017-05-23T19:22:57.479Z,3.58
2017-05-23T19:25:25.801Z,3.56
2017-05-23T19:27:54.103Z,4.26
2017-05-23T19:30:22.393Z,3.82
2017-05-23T19:32:50.718Z,3.56
2017-05-23T19:35:19.014Z,6.08
2017-05-23T19:37:47.346Z,6.66
2017-05-23T19:40:15.654Z,11.22
2017-05-23T19:42:44.016Z,12.22
2017-05-23T19:45:12.441Z,8.68
2017-05-23T19:47:40.746Z,7.64
2017-05-23T19:50:09.071Z,5.68
2017-05-23T19:52:37.402Z,4.58
2017-05-23T19:55:05.718Z,4.60
2017-05-23T19:57:34.058Z,3.72
2017-05-23T20:00:02.362Z,3.76
2017-05-23T20:02:30.718Z,3.82
2017-05-23T20:04:59.019Z,4.08
2017-05-23T20:07:27.327Z,3.30
2017-05-23T20:09:55.646Z,3.12
2017-05-23T20:12:23.179Z,3.20
2017-05-23T20:14:51.493Z,3.22
2017-05-23T20:17:19.798Z,3.24
2017-05-23T20:19:48.107Z,3.34
2017-05-23T20:22:15.659Z,3.46
2017-05-23T20:24:44.047Z,3.38
2017-05-23T20:27:12.362Z,2.90
2017-05-23T20:29:40.666Z,3.40
2017-05-23T20:32:08.966Z,3.58
2017-05-23T20:34:37.281Z,3.32
2017-05-23T20:37:05.594Z,3.88
2017-05-23T20:39:33.924Z,3.12
2017-05-23T20:42:02.223Z,4.05
2017-05-23T20:44:30.518Z,3.38
2017-05-23T20:46:58.844Z,3.74
2017-05-23T20:49:27.138Z,3.96
2017-05-23T20:51:55.473Z,3.66
2017-05-23T20:54:23.796Z,3.67
2017-05-23T20:56:52.107Z,4.06
2017-05-23T20:59:20.437Z,3.48
2017-05-23T21:01:48.734Z,3.74
2017-05-23T21:04:17.055Z,3.88
2017-05-23T21:06:46.022Z,3.92
2017-05-23T21:09:14.326Z,3.76
2017-05-23T21:11:42.655Z,3.58
2017-05-23T21:14:10.989Z,3.55
2017-05-23T21:16:39.322Z,3.82
2017-05-23T21:19:07.628Z,4.18
2017-05-23T21:21:35.942Z,4.38
2017-05-23T21:24:04.267Z,4.03
2017-05-23T21:26:32.578Z,4.40
2017-05-23T21:29:00.914Z,3.85
2017-05-23T21:31:29.218Z,3.77
2017-05-23T21:33:57.527Z,4.25
2017-05-23T21:36:25.851Z,3.85
2017-05-23T21:38:54.169Z,4.02
2017-05-23T21:41:22.499Z,3.88
2017-05-23T21:43:50.824Z,4.33
2017-05-23T21:46:19.135Z,3.53
2017-05-23T21:48:47.480Z,3.93
2017-05-23T21:51:15.790Z,3.83
2017-05-23T21:53:44.128Z,3.60
2017-05-23T21:56:12.442Z,4.05
2017-05-23T21:58:40.781Z,3.60
2017-05-23T22:01:09.116Z,3.43
2017-05-23T22:03:37.414Z,4.05
2017-05-23T22:06:05.743Z,4.12
2017-05-23T22:08:34.062Z,3.47
2017-05-23T22:11:02.374Z,3.62
2017-05-23T22:13:30.699Z,3.92
2017-05-23T22:15:59.008Z,3.87
2017-05-23T22:18:27.339Z,4.10
2017-05-23T22:20:55.643Z,4.27
2017-05-23T22:23:23.951Z,4.38
2017-05-23T22:25:52.659Z,4.27
2017-05-23T22:28:20.309Z,3.95
2017-05-23T22:30:48.655Z,3.92
2017-05-23T22:33:16.963Z,3.80
2017-05-23T22:35:45.670Z,3.70
2017-05-23T22:38:14.011Z,3.90
2017-05-23T22:40:42.347Z,4.17
2017-05-23T22:43:10.692Z,3.77
2017-05-23T22:45:39.002Z,4.32
2017-05-23T22:48:07.316Z,4.30
2017-05-23T22:50:35.666Z,4.08
2017-05-23T22:53:04.011Z,4.53
2017-05-23T22:55:32.346Z,5.08
2017-05-23T22:58:00.658Z,4.47
2017-05-23T23:00:28.986Z,3.78
2017-05-23T23:02:57.348Z,3.83
2017-05-23T23:05:26.426Z,4.02
2017-05-23T23:07:54.761Z,3.52
2017-05-23T23:10:23.063Z,4.33
2017-05-23T23:12:51.379Z,3.55
2017-05-23T23:15:19.706Z,4.03
2017-05-23T23:17:48.025Z,3.67
2017-05-23T23:20:16.351Z,4.68
2017-05-23T23:22:44.667Z,4.52
2017-05-23T23:25:12.974Z,4.00
2017-05-23T23:27:42.576Z,4.08
2017-05-23T23:30:10.903Z,4.33
2017-05-23T23:32:38.757Z,4.17
2017-05-23T23:35:07.050Z,4.38
2017-05-23T23:37:34.578Z,4.47
2017-05-23T23:40:02.905Z,4.27
2017-05-23T23:42:31.203Z,4.33
2017-05-23T23:44:59.560Z,4.00
2017-05-23T23:47:27.857Z,4.68
2017-05-23T23:49:56.166Z,4.90
2017-05-23T23:52:24.490Z,4.43
2017-05-23T23:54:52.786Z,4.37
2017-05-23T23:57:21.110Z,4.57
2017-05-23T23:59:49.416Z,4.70
